createdAt,value
2022-10-19T00:01:48.099Z,100.00
2022-10-19T00:04:17.703Z,100.00
2022-10-19T00:06:45.527Z,100.00
2022-10-19T00:09:16.352Z,100.00
2022-10-19T00:11:44.437Z,100.00
2022-10-19T00:14:21.366Z,100.00
2022-10-19T00:16:49.983Z,100.00
2022-10-19T00:19:22.481Z,100.00
2022-10-19T00:24:45.983Z,100.00
2022-10-19T00:27:13.723Z,100.00
2022-10-19T00:29:41.681Z,100.00
2022-10-19T00:32:08.836Z,100.00
2022-10-19T00:34:36.760Z,100.00
2022-10-19T00:37:03.783Z,100.00
2022-10-19T00:39:30.620Z,100.00
2022-10-19T00:41:59.897Z,100.00
2022-10-19T00:44:29.455Z,100.00
2022-10-19T00:47:08.156Z,100.00
2022-10-19T00:49:38.876Z,100.00
2022-10-19T00:52:17.757Z,100.00
2022-10-19T00:54:50.009Z,100.00
2022-10-19T00:57:20.811Z,100.00
2022-10-19T00:59:47.800Z,100.00
2022-10-19T01:02:21.158Z,100.00
2022-10-19T01:04:53.002Z,100.00
2022-10-19T01:07:20.682Z,100.00
2022-10-19T01:09:50.733Z,100.00
2022-10-19T01:12:33.110Z,100.00
2022-10-19T01:15:12.722Z,100.00
2022-10-19T01:17:42.086Z,100.00
2022-10-19T01:20:27.661Z,100.00
2022-10-19T01:23:16.770Z,100.00
2022-10-19T01:26:03.145Z,100.00
2022-10-19T01:29:12.130Z,100.00
2022-10-19T01:31:57.861Z,100.00
2022-10-19T01:34:45.783Z,100.00
2022-10-19T01:37:36.873Z,100.00
2022-10-19T01:40:10.010Z,100.00
2022-10-19T01:43:05.093Z,100.00
2022-10-19T01:46:18.017Z,100.00
2022-10-19T01:48:55.103Z,100.00
2022-10-19T01:51:33.471Z,100.00
2022-10-19T01:54:04.453Z,100.00
2022-10-19T01:56:33.900Z,100.00
2022-10-19T01:59:04.785Z,100.00
2022-10-19T02:01:35.436Z,100.00
2022-10-19T02:04:20.854Z,100.00
2022-10-19T02:06:53.190Z,100.00
2022-10-19T02:09:20.335Z,100.00
2022-10-19T02:12:10.618Z,100.00
2022-10-19T02:14:50.979Z,100.00
2022-10-19T02:17:30.166Z,100.00
2022-10-19T02:20:06.950Z,100.00
2022-10-19T02:22:39.999Z,100.00
2022-10-19T02:25:10.144Z,100.00
2022-10-19T02:27:43.775Z,100.00
2022-10-19T02:30:17.950Z,100.00
2022-10-19T02:32:53.222Z,100.00
2022-10-19T02:35:20.571Z,100.00
2022-10-19T02:37:47.926Z,100.00
2022-10-19T02:40:25.625Z,100.00
2022-10-19T02:43:01.256Z,100.00
2022-10-19T02:45:33.057Z,100.00
2022-10-19T02:48:21.255Z,100.00
2022-10-19T02:50:48.002Z,100.00
2022-10-19T02:53:17.801Z,100.00
2022-10-19T02:55:47.639Z,100.00
2022-10-19T02:58:20.745Z,100.00
2022-10-19T03:00:49.624Z,100.00
2022-10-19T03:03:16.510Z,100.00
2022-10-19T03:05:57.689Z,100.00
2022-10-19T03:08:24.740Z,100.00
2022-10-19T03:10:59.336Z,100.00
2022-10-19T03:13:33.167Z,100.00
2022-10-19T03:16:10.249Z,100.00
2022-10-19T03:18:37.786Z,100.00
2022-10-19T03:21:19.572Z,100.00
2022-10-19T03:23:46.651Z,100.00
2022-10-19T03:26:17.876Z,100.00
2022-10-19T03:28:45.461Z,100.00
2022-10-19T03:31:12.611Z,100.00
2022-10-19T03:33:42.219Z,100.00
2022-10-19T03:36:22.803Z,100.00
2022-10-19T03:38:55.057Z,100.00
2022-10-19T03:41:24.739Z,100.00
2022-10-19T03:43:52.180Z,100.00
2022-10-19T03:46:19.884Z,100.00
2022-10-19T03:48:55.232Z,100.00
2022-10-19T03:51:25.688Z,100.00
2022-10-19T03:53:53.625Z,100.00
2022-10-19T03:56:23.601Z,100.00
2022-10-19T03:58:55.289Z,100.00
2022-10-19T04:01:31.114Z,100.00
2022-10-19T04:04:01.393Z,100.00
2022-10-19T04:06:36.418Z,100.00
2022-10-19T04:09:05.500Z,100.00
2022-10-19T04:11:34.239Z,100.00
2022-10-19T04:14:04.558Z,100.00
2022-10-19T04:16:33.273Z,100.00
2022-10-19T04:19:03.534Z,100.00
2022-10-19T04:21:50.464Z,100.00
2022-10-19T04:24:48.816Z,100.00
2022-10-19T04:27:15.958Z,100.00
2022-10-19T04:29:43.646Z,100.00
2022-10-19T04:32:10.842Z,100.00
2022-10-19T04:34:39.990Z,100.00
2022-10-19T04:37:07.412Z,100.00
2022-10-19T04:39:40.336Z,100.00
2022-10-19T04:42:07.469Z,100.00
2022-10-19T04:44:42.558Z,100.00
2022-10-19T04:47:09.793Z,100.00
2022-10-19T04:49:37.080Z,100.00
2022-10-19T04:52:04.398Z,100.00
2022-10-19T04:54:42.509Z,100.00
2022-10-19T04:57:10.488Z,100.00
2022-10-19T04:59:37.917Z,100.00
2022-10-19T05:02:05.163Z,100.00
2022-10-19T05:04:36.489Z,100.00
2022-10-19T05:07:03.710Z,100.00
2022-10-19T05:09:30.661Z,100.00
2022-10-19T05:11:57.910Z,100.00
2022-10-19T05:16:58.914Z,100.00
2022-10-19T05:19:26.169Z,100.00
2022-10-19T05:21:59.156Z,100.00
2022-10-19T05:24:43.947Z,100.00
2022-10-19T05:27:11.207Z,100.00
2022-10-19T05:29:38.160Z,100.00
2022-10-19T05:32:05.816Z,100.00
2022-10-19T05:34:33.074Z,100.00
2022-10-19T05:37:05.086Z,100.00
2022-10-19T05:39:39.186Z,100.00
2022-10-19T05:42:06.164Z,100.00
2022-10-19T05:47:03.873Z,100.00
2022-10-19T05:49:31.235Z,100.00
2022-10-19T05:52:04.689Z,100.00
2022-10-19T05:54:31.783Z,100.00
2022-10-19T05:56:59.019Z,100.00
2022-10-19T05:59:26.643Z,100.00
2022-10-19T06:01:53.490Z,100.00
2022-10-19T06:04:20.517Z,100.00
2022-10-19T06:06:47.505Z,100.00
2022-10-19T06:09:14.382Z,100.00
2022-10-19T06:11:42.828Z,100.00
2022-10-19T06:14:15.438Z,100.00
2022-10-19T06:16:45.235Z,100.00
2022-10-19T06:19:11.938Z,100.00
2022-10-19T06:21:41.816Z,100.00
2022-10-19T06:24:12.525Z,100.00
2022-10-19T06:26:47.399Z,100.00
2022-10-19T06:29:14.252Z,100.00
2022-10-19T06:31:41.154Z,100.00
2022-10-19T06:34:07.890Z,100.00
2022-10-19T06:36:37.408Z,100.00
2022-10-19T06:39:04.152Z,100.00
2022-10-19T06:41:32.164Z,100.00
2022-10-19T06:44:06.518Z,100.00
2022-10-19T06:46:33.438Z,100.00
2022-10-19T06:49:01.693Z,100.00
2022-10-19T06:51:30.307Z,100.00
2022-10-19T06:53:59.884Z,100.00
2022-10-19T06:56:36.132Z,100.00
2022-10-19T06:59:03.109Z,100.00
2022-10-19T07:01:37.312Z,100.00
2022-10-19T07:04:04.140Z,100.00
2022-10-19T07:06:30.955Z,100.00
2022-10-19T07:08:57.868Z,100.00
2022-10-19T07:11:30.916Z,100.00
2022-10-19T07:14:18.515Z,100.00
2022-10-19T07:16:45.310Z,100.00
2022-10-19T07:19:13.113Z,100.00
2022-10-19T07:21:41.217Z,100.00
2022-10-19T07:24:17.393Z,100.00
2022-10-19T07:26:44.210Z,100.00
2022-10-19T07:29:11.124Z,100.00
2022-10-19T07:31:37.817Z,100.00
2022-10-19T07:34:05.243Z,100.00
2022-10-19T07:36:36.496Z,100.00
2022-10-19T07:39:05.834Z,100.00
2022-10-19T07:41:34.262Z,100.00
2022-10-19T07:44:12.152Z,100.00
2022-10-19T07:46:42.705Z,100.00
2022-10-19T07:49:13.516Z,100.00
2022-10-19T07:51:40.401Z,100.00
2022-10-19T07:54:07.766Z,100.00
2022-10-19T07:56:34.854Z,100.00
2022-10-19T07:59:04.347Z,100.00
2022-10-19T08:01:33.974Z,100.00
2022-10-19T08:06:48.337Z,100.00
2022-10-19T08:09:47.342Z,100.00
2022-10-19T08:12:05.817Z,100.00
2022-10-19T08:14:33.107Z,100.00
2022-10-19T08:17:00.319Z,99.40
2022-10-19T08:19:27.492Z,95.33
2022-10-19T08:21:54.317Z,92.39
2022-10-19T08:24:21.212Z,94.62
2022-10-19T08:26:50.684Z,99.99
2022-10-19T08:29:22.011Z,99.51
2022-10-19T08:31:50.243Z,96.10
2022-10-19T08:34:17.312Z,94.72
2022-10-19T08:36:44.305Z,98.94
2022-10-19T08:39:12.903Z,100.00
2022-10-19T08:41:40.066Z,100.00
2022-10-19T08:44:44.734Z,98.35
2022-10-19T08:47:22.321Z,96.07
2022-10-19T08:49:50.989Z,96.50
2022-10-19T08:52:33.420Z,95.13
2022-10-19T08:55:08.433Z,92.43
2022-10-19T08:57:57.499Z,88.33
2022-10-19T09:00:46.608Z,87.63
2022-10-19T09:03:37.788Z,90.50
2022-10-19T09:06:56.756Z,90.63
2022-10-19T09:09:24.919Z,90.52
2022-10-19T09:11:57.782Z,88.18
2022-10-19T09:14:44.000Z,89.10
2022-10-19T09:17:14.147Z,90.30
2022-10-19T09:19:41.052Z,88.28
2022-10-19T09:22:33.878Z,89.42
2022-10-19T09:25:12.577Z,88.59
2022-10-19T09:27:42.962Z,91.15
2022-10-19T09:30:21.719Z,91.16
2022-10-19T09:32:51.652Z,91.09
2022-10-19T09:35:42.826Z,91.77
2022-10-19T09:38:14.359Z,89.45
2022-10-19T09:40:41.179Z,89.02
2022-10-19T09:43:20.285Z,90.09
2022-10-19T09:45:50.875Z,91.80
2022-10-19T09:48:32.943Z,89.87
2022-10-19T09:51:10.075Z,87.59
2022-10-19T09:53:37.736Z,87.59
2022-10-19T09:56:07.046Z,88.80
2022-10-19T09:58:35.297Z,88.23
2022-10-19T10:01:02.814Z,88.82
2022-10-19T10:03:35.967Z,89.55
2022-10-19T10:06:06.808Z,89.40
2022-10-19T10:08:37.745Z,84.02
2022-10-19T10:11:11.229Z,85.99
2022-10-19T10:13:41.371Z,89.26
2022-10-19T10:16:15.390Z,91.17
2022-10-19T10:18:51.571Z,92.21
2022-10-19T10:21:34.225Z,92.61
2022-10-19T10:24:06.307Z,92.65
2022-10-19T10:26:42.469Z,89.82
2022-10-19T10:29:30.393Z,90.38
2022-10-19T10:32:15.716Z,90.53
2022-10-19T10:34:58.534Z,92.29
2022-10-19T10:37:42.794Z,92.75
2022-10-19T10:40:28.072Z,90.62
2022-10-19T10:43:01.133Z,86.95
2022-10-19T10:45:45.798Z,84.93
2022-10-19T10:48:30.462Z,86.08
2022-10-19T10:51:00.465Z,84.25
2022-10-19T10:53:40.032Z,80.06
2022-10-19T10:56:28.917Z,78.55
2022-10-19T10:59:09.937Z,80.06
2022-10-19T11:01:44.520Z,80.42
2022-10-19T11:04:19.075Z,79.61
2022-10-19T11:06:54.625Z,79.53
2022-10-19T11:09:24.330Z,81.57
2022-10-19T11:11:55.430Z,79.00
2022-10-19T11:14:45.506Z,78.01
2022-10-19T11:17:20.488Z,72.72
2022-10-19T11:19:50.675Z,73.06
2022-10-19T11:22:27.973Z,74.04
2022-10-19T11:25:24.560Z,70.61
2022-10-19T11:27:56.312Z,69.50
2022-10-19T11:30:24.698Z,69.46
2022-10-19T11:33:03.411Z,69.94
2022-10-19T11:35:30.286Z,70.49
2022-10-19T11:38:23.391Z,71.40
2022-10-19T11:41:26.400Z,72.91
2022-10-19T11:44:04.311Z,73.85
2022-10-19T11:46:37.800Z,75.05
2022-10-19T11:49:26.408Z,74.98
2022-10-19T11:52:12.856Z,75.18
2022-10-19T11:54:58.598Z,74.57
2022-10-19T11:57:36.590Z,76.10
2022-10-19T12:00:27.243Z,76.97
2022-10-19T12:03:27.938Z,78.02
2022-10-19T12:06:13.067Z,78.33
2022-10-19T12:09:24.670Z,79.88
2022-10-19T12:12:39.702Z,79.24
2022-10-19T12:15:35.397Z,81.05
2022-10-19T12:18:41.249Z,80.35
2022-10-19T12:21:17.586Z,81.24
2022-10-19T12:23:46.566Z,80.65
2022-10-19T12:28:57.259Z,80.54
2022-10-19T12:31:26.987Z,79.56
2022-10-19T12:33:59.866Z,80.90
2022-10-19T12:36:39.416Z,82.90
2022-10-19T12:39:23.429Z,85.58
2022-10-19T12:42:10.613Z,86.22
2022-10-19T12:45:08.724Z,85.76
2022-10-19T12:47:36.377Z,86.63
2022-10-19T12:50:04.059Z,86.91
2022-10-19T12:52:34.417Z,87.07
2022-10-19T12:55:17.289Z,88.58
2022-10-19T12:57:47.916Z,89.30
2022-10-19T13:00:29.657Z,89.21
2022-10-19T13:03:03.321Z,89.39
2022-10-19T13:05:31.751Z,88.43
2022-10-19T13:08:02.970Z,90.16
2022-10-19T13:10:32.816Z,89.60
2022-10-19T13:13:03.017Z,89.91
2022-10-19T13:15:36.342Z,88.58
2022-10-19T13:18:16.450Z,87.48
2022-10-19T13:20:53.141Z,87.47
2022-10-19T13:23:26.034Z,89.14
2022-10-19T13:26:38.270Z,90.36
2022-10-19T13:29:24.937Z,92.34
2022-10-19T13:32:34.696Z,94.01
2022-10-19T13:35:20.983Z,95.56
2022-10-19T13:38:09.867Z,98.58
2022-10-19T13:40:55.452Z,98.91
2022-10-19T13:43:26.363Z,99.69
2022-10-19T13:46:01.975Z,100.00
2022-10-19T13:48:37.520Z,100.00
2022-10-19T13:51:57.063Z,100.00
2022-10-19T13:54:25.225Z,100.00
2022-10-19T13:56:51.940Z,100.00
2022-10-19T13:59:40.873Z,100.00
2022-10-19T14:02:13.641Z,100.00
2022-10-19T14:05:06.023Z,100.00
2022-10-19T14:07:59.114Z,100.00
2022-10-19T14:10:32.938Z,100.00
2022-10-19T14:13:11.122Z,100.00
2022-10-19T14:15:38.059Z,100.00
2022-10-19T14:18:23.013Z,100.00
2022-10-19T14:21:04.866Z,100.00
2022-10-19T14:23:39.286Z,100.00
2022-10-19T14:26:20.277Z,100.00
2022-10-19T14:28:53.747Z,100.00
2022-10-19T14:31:25.118Z,100.00
2022-10-19T14:33:56.402Z,100.00
2022-10-19T14:36:27.703Z,100.00
2022-10-19T14:38:57.095Z,100.00
2022-10-19T14:41:26.997Z,100.00
2022-10-19T14:43:58.252Z,100.00
2022-10-19T14:46:29.322Z,100.00
2022-10-19T14:49:14.394Z,100.00
2022-10-19T14:51:47.751Z,100.00
2022-10-19T14:54:29.239Z,100.00
2022-10-19T14:57:03.855Z,100.00
2022-10-19T14:59:34.292Z,100.00
2022-10-19T15:02:08.963Z,100.00
2022-10-19T15:04:37.798Z,100.00
2022-10-19T15:07:18.646Z,100.00
2022-10-19T15:09:53.833Z,100.00
2022-10-19T15:12:27.462Z,100.00
2022-10-19T15:14:55.584Z,100.00
2022-10-19T15:17:30.877Z,100.00
2022-10-19T15:20:04.744Z,100.00
2022-10-19T15:22:32.011Z,100.00
2022-10-19T15:25:01.738Z,100.00
2022-10-19T15:27:34.526Z,100.00
2022-10-19T15:30:06.547Z,100.00
2022-10-19T15:32:37.908Z,100.00
2022-10-19T15:35:18.003Z,100.00
2022-10-19T15:37:48.984Z,100.00
2022-10-19T15:40:33.071Z,100.00
2022-10-19T15:43:19.657Z,100.00
2022-10-19T15:45:46.400Z,100.00
2022-10-19T15:48:26.233Z,100.00
2022-10-19T15:50:54.295Z,100.00
2022-10-19T15:53:21.984Z,100.00
2022-10-19T15:55:49.940Z,100.00
2022-10-19T15:58:17.606Z,100.00
2022-10-19T16:00:47.396Z,100.00
2022-10-19T16:03:14.203Z,100.00
2022-10-19T16:05:42.810Z,100.00
2022-10-19T16:08:12.465Z,100.00
2022-10-19T16:10:39.511Z,100.00
2022-10-19T16:13:06.410Z,100.00
2022-10-19T16:15:33.559Z,100.00
2022-10-19T16:18:00.996Z,100.00
2022-10-19T16:20:29.875Z,100.00
2022-10-19T16:22:57.254Z,100.00
2022-10-19T16:25:24.234Z,100.00
2022-10-19T16:27:51.149Z,100.00
2022-10-19T16:30:18.446Z,100.00
2022-10-19T16:32:47.989Z,100.00
2022-10-19T16:35:14.987Z,100.00
2022-10-19T16:37:41.668Z,100.00
2022-10-19T16:40:08.889Z,100.00
2022-10-19T16:42:36.019Z,100.00
2022-10-19T16:45:03.098Z,100.00
2022-10-19T16:47:29.830Z,100.00
2022-10-19T16:50:02.301Z,100.00
2022-10-19T16:52:31.207Z,100.00
2022-10-19T16:54:59.199Z,100.00
2022-10-19T16:57:26.427Z,100.00
2022-10-19T17:02:26.278Z,100.00
2022-10-19T17:04:53.080Z,100.00
2022-10-19T17:07:20.465Z,100.00
2022-10-19T17:09:49.823Z,100.00
2022-10-19T17:12:17.710Z,100.00
2022-10-19T17:14:44.962Z,100.00
2022-10-19T17:17:12.435Z,100.00
2022-10-19T17:19:41.280Z,100.00
2022-10-19T17:22:07.987Z,100.00
2022-10-19T17:24:36.780Z,100.00
2022-10-19T17:27:03.617Z,100.00
2022-10-19T17:29:30.608Z,100.00
2022-10-19T17:31:58.592Z,100.00
2022-10-19T17:34:28.358Z,100.00
2022-10-19T17:36:58.955Z,100.00
2022-10-19T17:39:29.209Z,100.00
2022-10-19T17:42:00.751Z,100.00
2022-10-19T17:44:29.462Z,100.00
2022-10-19T17:46:58.848Z,100.00
2022-10-19T17:49:25.746Z,100.00
2022-10-19T17:51:53.789Z,100.00
2022-10-19T17:54:20.584Z,100.00
2022-10-19T17:56:47.338Z,100.00
2022-10-19T17:59:14.412Z,100.00
2022-10-19T18:01:41.204Z,100.00
2022-10-19T18:04:07.873Z,100.00
2022-10-19T18:06:36.684Z,100.00
2022-10-19T18:09:06.126Z,100.00
2022-10-19T18:11:40.002Z,100.00
2022-10-19T18:14:08.447Z,100.00
2022-10-19T18:16:41.689Z,100.00
2022-10-19T18:19:08.559Z,100.00
2022-10-19T18:21:39.915Z,100.00
2022-10-19T18:24:31.160Z,100.00
2022-10-19T18:29:41.980Z,100.00
2022-10-19T18:32:11.409Z,100.00
2022-10-19T18:34:48.865Z,100.00
2022-10-19T18:37:16.176Z,100.00
2022-10-19T18:39:55.020Z,100.00
2022-10-19T18:42:22.156Z,100.00
2022-10-19T18:45:05.172Z,100.00
2022-10-19T18:47:42.611Z,100.00
2022-10-19T18:53:01.292Z,100.00
2022-10-19T18:55:28.071Z,100.00
2022-10-19T18:58:05.070Z,100.00
2022-10-19T19:00:45.550Z,100.00
2022-10-19T19:03:28.137Z,100.00
2022-10-19T19:06:01.557Z,100.00
2022-10-19T19:08:28.704Z,100.00
2022-10-19T19:10:58.637Z,100.00
2022-10-19T19:13:35.680Z,100.00
2022-10-19T19:19:04.858Z,100.00
2022-10-19T19:21:34.015Z,100.00
2022-10-19T19:24:03.492Z,100.00
2022-10-19T19:26:36.975Z,100.00
2022-10-19T19:29:08.070Z,100.00
2022-10-19T19:31:36.159Z,100.00
2022-10-19T19:34:08.888Z,100.00
2022-10-19T19:36:51.222Z,100.00
2022-10-19T19:39:23.521Z,100.00
2022-10-19T19:42:09.285Z,100.00
2022-10-19T19:44:38.564Z,100.00
2022-10-19T19:47:10.784Z,100.00
2022-10-19T19:49:37.711Z,100.00
2022-10-19T19:52:13.635Z,100.00
2022-10-19T19:54:48.359Z,100.00
2022-10-19T19:57:27.694Z,100.00
2022-10-19T20:00:00.189Z,100.00
2022-10-19T20:02:27.000Z,100.00
2022-10-19T20:04:59.497Z,100.00
2022-10-19T20:07:30.458Z,100.00
2022-10-19T20:10:00.293Z,100.00
2022-10-19T20:12:32.742Z,100.00
2022-10-19T20:15:03.741Z,100.00
2022-10-19T20:17:30.899Z,100.00
2022-10-19T20:20:10.854Z,100.00
2022-10-19T20:22:38.102Z,100.00
2022-10-19T20:25:09.403Z,100.00
2022-10-19T20:27:38.347Z,100.00
2022-10-19T20:30:19.795Z,100.00
2022-10-19T20:33:04.653Z,100.00
2022-10-19T20:35:36.898Z,100.00
2022-10-19T20:38:23.581Z,100.00
2022-10-19T20:41:08.011Z,100.00
2022-10-19T20:43:37.072Z,100.00
2022-10-19T20:46:15.027Z,100.00
2022-10-19T20:48:47.146Z,100.00
2022-10-19T20:51:31.642Z,100.00
2022-10-19T20:54:11.641Z,100.00
2022-10-19T20:56:46.265Z,100.00
2022-10-19T20:59:16.672Z,100.00
2022-10-19T21:01:51.126Z,100.00
2022-10-19T21:04:28.010Z,100.00
2022-10-19T21:07:05.011Z,100.00
2022-10-19T21:09:39.012Z,100.00
2022-10-19T21:12:09.712Z,100.00
2022-10-19T21:14:36.755Z,100.00
2022-10-19T21:17:06.448Z,100.00
2022-10-19T21:19:44.003Z,100.00
2022-10-19T21:22:15.913Z,100.00
2022-10-19T21:24:42.821Z,100.00
2022-10-19T21:27:16.351Z,100.00
2022-10-19T21:29:43.166Z,100.00
2022-10-19T21:32:10.054Z,100.00
2022-10-19T21:34:40.488Z,100.00
2022-10-19T21:37:13.959Z,100.00
2022-10-19T21:39:46.349Z,100.00
2022-10-19T21:42:13.295Z,100.00
2022-10-19T21:44:44.439Z,100.00
2022-10-19T21:47:20.731Z,100.00
2022-10-19T21:49:49.798Z,100.00
2022-10-19T21:52:16.609Z,100.00
2022-10-19T21:54:45.508Z,100.00
2022-10-19T21:57:12.582Z,100.00
2022-10-19T21:59:45.542Z,100.00
2022-10-19T22:02:13.083Z,100.00
2022-10-19T22:04:41.935Z,100.00
2022-10-19T22:07:08.795Z,100.00
2022-10-19T22:09:35.941Z,100.00
2022-10-19T22:12:02.702Z,100.00
2022-10-19T22:14:29.582Z,100.00
2022-10-19T22:16:58.848Z,100.00
2022-10-19T22:19:28.254Z,100.00
2022-10-19T22:21:54.895Z,100.00
2022-10-19T22:24:22.793Z,100.00
2022-10-19T22:27:04.058Z,100.00
2022-10-19T22:29:35.705Z,100.00
2022-10-19T22:32:05.147Z,100.00
2022-10-19T22:34:43.815Z,100.00
2022-10-19T22:37:17.671Z,100.00
2022-10-19T22:39:46.297Z,100.00
2022-10-19T22:42:13.122Z,100.00
2022-10-19T22:44:40.133Z,100.00
2022-10-19T22:47:06.952Z,100.00
2022-10-19T22:49:33.509Z,100.00
2022-10-19T22:52:03.132Z,100.00
2022-10-19T22:54:29.654Z,100.00
2022-10-19T22:56:59.940Z,100.00
2022-10-19T22:59:26.818Z,100.00
2022-10-19T23:01:58.758Z,100.00
2022-10-19T23:04:28.152Z,100.00
2022-10-19T23:06:54.875Z,100.00
2022-10-19T23:09:24.111Z,100.00
2022-10-19T23:11:50.636Z,100.00
2022-10-19T23:14:17.682Z,100.00
2022-10-19T23:16:48.637Z,100.00
2022-10-19T23:19:15.857Z,100.00
2022-10-19T23:21:43.226Z,100.00
2022-10-19T23:24:09.996Z,100.00
2022-10-19T23:26:42.552Z,100.00
2022-10-19T23:29:09.939Z,100.00
2022-10-19T23:31:36.741Z,100.00
2022-10-19T23:34:03.709Z,100.00
2022-10-19T23:36:45.061Z,100.00
2022-10-19T23:39:18.109Z,100.00
2022-10-19T23:41:44.885Z,100.00
2022-10-19T23:44:16.959Z,100.00
2022-10-19T23:46:51.165Z,100.00
2022-10-19T23:49:17.705Z,100.00
2022-10-19T23:51:46.550Z,100.00
2022-10-19T23:54:13.181Z,100.00
2022-10-19T23:56:41.280Z,100.00
2022-10-19T23:59:10.623Z,100.00
